Time;durP1;ratioP1;P1;durP2;ratioP2;P2;SDS_P1;SDS_P2;PMS_P1;PMS_P2;Temp;Humidity;BMP_temperature;BMP_pressure;BME280_temperature;BME280_humidity;BME280_pressure;Samples;Min_cycle;Max_cycle;Signal;HPM_P1;HPM_P2
2023/03/28 00:01:04;;;;;;;1999.90;999.90;;;24.70;99.90;;;;;;5039076;28;20033;-69
2023/03/28 00:03:35;;;;;;;1999.90;999.90;;;24.70;99.90;;;;;;5026396;28;20032;-70
2023/03/28 00:06:04;;;;;;;1999.90;999.90;;;24.70;99.90;;;;;;5034206;28;20033;-70
2023/03/28 00:08:31;;;;;;;1999.90;999.90;;;24.80;99.90;;;;;;5028893;28;20095;-69
2023/03/28 00:11:07;;;;;;;1999.90;999.90;;;24.80;99.90;;;;;;5034963;28;20057;-71
2023/03/28 00:13:35;;;;;;;1999.90;999.90;;;24.90;99.90;;;;;;5038658;28;20041;-70
2023/03/28 00:16:08;;;;;;;1999.90;999.90;;;25.00;99.90;;;;;;5032781;28;20040;-70
2023/03/28 00:18:39;;;;;;;1999.90;999.90;;;25.00;99.90;;;;;;5029733;28;20483;-69
2023/03/28 00:21:24;;;;;;;1999.90;999.90;;;24.90;99.90;;;;;;5037211;28;20075;-70
2023/03/28 00:24:00;;;;;;;1999.90;999.90;;;24.90;99.90;;;;;;5028215;28;20033;-69
2023/03/28 00:26:31;;;;;;;1999.90;999.90;;;24.90;99.90;;;;;;5032517;28;20033;-69
2023/03/28 00:29:00;;;;;;;1999.90;999.90;;;24.90;99.90;;;;;;5032589;28;20055;-69
2023/03/28 00:31:29;;;;;;;1999.90;999.90;;;25.00;99.90;;;;;;5032303;28;20060;-69
2023/03/28 00:33:56;;;;;;;1999.90;999.90;;;25.00;99.90;;;;;;5035337;28;20705;-69
2023/03/28 00:36:28;;;;;;;1999.90;999.90;;;25.10;99.90;;;;;;5037746;28;20030;-69
2023/03/28 00:39:00;;;;;;;1999.90;999.90;;;25.00;99.90;;;;;;5037132;28;20036;-68
2023/03/28 00:41:32;;;;;;;1999.90;999.90;;;25.00;99.90;;;;;;5036765;28;20040;-70
2023/03/28 00:44:00;;;;;;;1999.90;999.90;;;25.00;99.90;;;;;;5034540;28;20029;-69
2023/03/28 00:46:41;;;;;;;1999.90;999.90;;;25.10;99.90;;;;;;5039191;28;20137;-70
2023/03/28 00:49:14;;;;;;;1999.90;999.90;;;25.10;99.90;;;;;;5033606;28;20044;-71
2023/03/28 00:51:48;;;;;;;1999.90;999.90;;;25.00;99.90;;;;;;5033037;28;20029;-70
2023/03/28 00:54:18;;;;;;;1999.90;999.90;;;25.00;99.90;;;;;;5031620;28;20025;-71
2023/03/28 00:56:48;;;;;;;1999.90;999.90;;;24.90;99.90;;;;;;5034605;28;20029;-71
2023/03/28 00:59:19;;;;;;;1999.90;999.90;;;24.90;99.90;;;;;;5032261;28;20104;-70
2023/03/28 01:01:47;;;;;;;1999.90;999.90;;;24.90;99.90;;;;;;5039320;28;20040;-71
2023/03/28 01:04:19;;;;;;;1999.90;999.90;;;24.80;99.90;;;;;;5035369;28;20476;-73
2023/03/28 01:06:50;;;;;;;1999.90;999.90;;;24.80;99.90;;;;;;5031037;28;20037;-72
2023/03/28 01:09:20;;;;;;;1999.90;999.90;;;24.80;99.90;;;;;;5030241;28;20041;-74
2023/03/28 01:11:48;;;;;;;1999.90;999.90;;;24.70;99.90;;;;;;5032896;28;20033;-70
2023/03/28 01:14:20;;;;;;;1999.90;999.90;;;24.70;99.90;;;;;;5031020;28;20037;-70
2023/03/28 01:16:48;;;;;;;1999.90;999.90;;;24.60;99.90;;;;;;5037086;28;20029;-70
2023/03/28 01:19:31;;;;;;;1999.90;999.90;;;24.50;99.90;;;;;;5030413;28;20524;-73
2023/03/28 01:22:16;;;;;;;1999.90;999.90;;;24.50;99.90;;;;;;5042104;28;20036;-69
2023/03/28 01:25:20;;;;;;;1999.90;999.90;;;24.40;99.90;;;;;;5029384;28;20353;-71
2023/03/28 01:28:00;;;;;;;1999.90;999.90;;;24.30;99.90;;;;;;5024643;28;20037;-69
2023/03/28 01:30:48;;;;;;;1999.90;999.90;;;24.30;99.90;;;;;;5035237;28;20048;-71
2023/03/28 01:33:43;;;;;;;1999.90;999.90;;;24.20;99.90;;;;;;5027916;28;20044;-70
2023/03/28 01:36:35;;;;;;;1999.90;999.90;;;24.00;99.90;;;;;;5034734;28;20040;-71
2023/03/28 01:39:11;;;;;;;1999.90;999.90;;;24.00;99.90;;;;;;5026318;28;20540;-71
2023/03/28 01:42:06;;;;;;;1999.90;999.90;;;24.00;99.90;;;;;;5031681;28;20082;-68
2023/03/28 01:44:56;;;;;;;1999.90;999.90;;;24.00;99.90;;;;;;5029072;28;20100;-69
2023/03/28 01:47:39;;;;;;;1999.90;999.90;;;24.00;99.90;;;;;;5022793;28;20054;-67
2023/03/28 01:50:35;;;;;;;1999.90;999.90;;;23.90;99.90;;;;;;5032672;28;20155;-71
2023/03/28 01:53:12;;;;;;;1999.90;999.90;;;23.90;99.90;;;;;;5032158;28;20447;-70
2023/03/28 01:55:47;;;;;;;1999.90;999.90;;;23.90;99.90;;;;;;5032733;28;20041;-69
2023/03/28 01:58:22;;;;;;;1999.90;999.90;;;23.90;99.90;;;;;;5033740;28;20025;-70
2023/03/28 02:00:57;;;;;;;1999.90;999.90;;;23.90;99.90;;;;;;5032117;28;20049;-70
2023/03/28 02:03:32;;;;;;;1999.90;999.90;;;23.90;99.90;;;;;;5030429;28;20021;-68
2023/03/28 02:06:03;;;;;;;1999.90;999.90;;;23.90;99.90;;;;;;5020540;28;20037;-69
2023/03/28 02:08:35;;;;;;;1999.90;999.90;;;23.80;99.90;;;;;;5025654;28;20029;-69
2023/03/28 02:11:03;;;;;;;1999.90;999.90;;;23.70;99.90;;;;;;5026883;28;20037;-68
2023/03/28 02:13:46;;;;;;;1999.90;999.90;;;23.60;99.90;;;;;;5029583;28;20556;-70
2023/03/28 02:16:17;;;;;;;1999.90;999.90;;;23.50;99.90;;;;;;5038643;28;20052;-70
2023/03/28 02:18:50;;;;;;;1999.90;999.90;;;23.40;99.90;;;;;;5025382;28;20510;-71
2023/03/28 02:21:26;;;;;;;1999.90;999.90;;;23.20;99.90;;;;;;5024401;28;20387;-70
2023/03/28 02:23:55;;;;;;;1999.90;999.90;;;23.20;99.90;;;;;;5031611;28;20384;-70
2023/03/28 02:26:24;;;;;;;1999.90;999.90;;;23.10;99.90;;;;;;5022412;28;20033;-69
2023/03/28 02:28:55;;;;;;;1999.90;999.90;;;23.00;99.90;;;;;;5027524;28;20531;-71
2023/03/28 02:31:23;;;;;;;1999.90;999.90;;;22.90;99.90;;;;;;5028378;28;20529;-69
2023/03/28 02:33:53;;;;;;;1999.90;999.90;;;22.80;99.90;;;;;;5025473;28;20495;-70
2023/03/28 02:36:47;;;;;;;1999.90;999.90;;;22.80;99.90;;;;;;5032823;28;20025;-70
2023/03/28 02:39:43;;;;;;;1999.90;999.90;;;22.80;99.90;;;;;;5026334;28;20038;-69
2023/03/28 02:42:26;;;;;;;1999.90;999.90;;;22.70;99.90;;;;;;5031531;28;20032;-71
2023/03/28 02:45:02;;;;;;;1999.90;999.90;;;22.70;99.90;;;;;;5031506;28;20036;-68
2023/03/28 02:47:37;;;;;;;1999.90;999.90;;;22.70;99.90;;;;;;5032245;28;20491;-70
2023/03/28 02:50:13;;;;;;;;;;;22.70;99.90;;;;;;5038336;28;20035;-71
2023/03/28 02:53:06;;;;;;;1999.90;999.90;;;22.60;99.90;;;;;;5021452;28;19968;-70
2023/03/28 02:55:38;;;;;;;1999.90;999.90;;;22.50;99.90;;;;;;5033042;28;20465;-68
2023/03/28 02:58:10;;;;;;;1999.90;999.90;;;22.60;99.90;;;;;;5022875;28;20029;-71
2023/03/28 03:00:38;;;;;;;1999.90;999.90;;;22.50;99.90;;;;;;5034783;28;20039;-69
2023/03/28 03:03:09;;;;;;;1999.90;999.90;;;22.50;99.90;;;;;;5035127;28;20032;-68
2023/03/28 03:05:37;;;;;;;1999.90;999.90;;;22.50;99.90;;;;;;5038623;28;20031;-71
2023/03/28 03:08:04;;;;;;;1999.90;999.90;;;22.50;99.90;;;;;;5029069;28;20460;-70
2023/03/28 03:10:31;;;;;;;1999.90;999.90;;;22.60;99.90;;;;;;5035544;28;20483;-69
2023/03/28 03:12:59;;;;;;;1999.90;999.90;;;22.60;99.90;;;;;;5031987;28;20037;-70
2023/03/28 03:15:29;;;;;;;1999.90;999.90;;;22.60;99.90;;;;;;5036044;28;20483;-68
2023/03/28 03:17:59;;;;;;;1999.90;999.90;;;22.60;99.90;;;;;;5033752;28;20120;-67
2023/03/28 03:20:32;;;;;;;1999.90;999.90;;;22.70;99.90;;;;;;5033567;28;20056;-69
2023/03/28 03:23:01;;;;;;;1999.90;999.90;;;22.70;99.90;;;;;;5033010;28;20484;-70
2023/03/28 03:25:30;;;;;;;1999.90;999.90;;;22.70;99.90;;;;;;5032460;28;20415;-69
2023/03/28 03:27:57;;;;;;;1999.90;999.90;;;22.70;99.90;;;;;;5046099;28;20129;-70
2023/03/28 03:30:25;;;;;;;1999.90;999.90;;;22.80;99.90;;;;;;5033957;28;20100;-69
2023/03/28 03:32:52;;;;;;;1999.90;999.90;;;22.70;99.90;;;;;;5023838;28;20132;-69
2023/03/28 03:35:19;;;;;;;1999.90;999.90;;;22.70;99.90;;;;;;5038004;28;20052;-68
2023/03/28 03:37:47;;;;;;;1999.90;999.90;;;22.60;99.90;;;;;;5032772;28;20025;-69
2023/03/28 03:40:16;;;;;;;1999.90;999.90;;;22.60;99.90;;;;;;5034926;28;20436;-69
2023/03/28 03:42:44;;;;;;;1999.90;999.90;;;22.60;99.90;;;;;;5030596;28;20033;-67
2023/03/28 03:45:12;;;;;;;1999.90;999.90;;;22.50;99.90;;;;;;5032508;28;20072;-70
2023/03/28 03:47:39;;;;;;;1999.90;999.90;;;22.40;99.90;;;;;;5030157;28;20484;-69
2023/03/28 03:50:08;;;;;;;1999.90;999.90;;;22.40;99.90;;;;;;5031742;28;20033;-70
2023/03/28 03:52:35;;;;;;;1999.90;999.90;;;22.30;99.90;;;;;;5028365;28;20041;-68
2023/03/28 03:55:03;;;;;;;1999.90;999.90;;;22.20;99.90;;;;;;5039054;28;20108;-69
2023/03/28 03:57:30;;;;;;;1999.90;999.90;;;22.00;99.90;;;;;;5031871;28;20036;-69
2023/03/28 03:59:58;;;;;;;1999.90;999.90;;;22.00;99.90;;;;;;5029547;28;20029;-69
2023/03/28 04:02:26;;;;;;;1999.90;999.90;;;21.90;99.90;;;;;;5031554;28;20060;-69
2023/03/28 04:04:55;;;;;;;1999.90;999.90;;;21.80;99.90;;;;;;5038233;28;20030;-70
2023/03/28 04:07:23;;;;;;;1999.90;999.90;;;21.70;99.90;;;;;;5035011;28;20025;-69
2023/03/28 04:09:50;;;;;;;1999.90;999.90;;;21.60;99.90;;;;;;5035321;28;20041;-70
2023/03/28 04:12:18;;;;;;;1999.90;999.90;;;21.50;99.90;;;;;;5033204;28;20050;-70
2023/03/28 04:14:45;;;;;;;1999.90;999.90;;;21.50;99.90;;;;;;5039059;28;20057;-68
2023/03/28 04:17:14;;;;;;;1999.90;999.90;;;21.40;99.90;;;;;;5037067;28;20120;-69
2023/03/28 04:19:44;;;;;;;1999.90;999.90;;;21.30;99.90;;;;;;5035640;28;20022;-69
2023/03/28 04:22:12;;;;;;;1999.90;999.90;;;21.40;99.90;;;;;;5033450;28;20112;-69
2023/03/28 04:24:40;;;;;;;1999.90;999.90;;;21.30;99.90;;;;;;5041067;28;20037;-71
2023/03/28 04:27:10;;;;;;;1999.90;999.90;;;21.30;99.90;;;;;;5035164;28;20040;-70
2023/03/28 04:29:38;;;;;;;1999.90;999.90;;;21.30;99.90;;;;;;5037243;28;20444;-69
2023/03/28 04:32:05;;;;;;;1999.90;999.90;;;21.30;99.90;;;;;;5039822;28;20056;-69
2023/03/28 04:34:34;;;;;;;1999.90;999.90;;;21.30;99.90;;;;;;5039271;28;20087;-71
2023/03/28 04:37:04;;;;;;;1999.90;999.90;;;21.30;99.90;;;;;;5040462;28;20040;-70
2023/03/28 04:39:36;;;;;;;1999.90;999.90;;;21.30;99.90;;;;;;5034885;28;20484;-70
2023/03/28 04:42:04;;;;;;;1999.90;999.90;;;21.30;99.90;;;;;;5036687;28;20029;-69
2023/03/28 04:44:32;;;;;;;1999.90;999.90;;;21.20;99.90;;;;;;5034726;28;20025;-68
2023/03/28 04:47:00;;;;;;;1999.90;999.90;;;21.20;99.90;;;;;;5036791;28;20041;-69
2023/03/28 04:49:27;;;;;;;1999.90;999.90;;;21.20;99.90;;;;;;5033267;28;20049;-69
2023/03/28 04:51:55;;;;;;;1999.90;999.90;;;21.20;99.90;;;;;;5036594;28;20053;-70
2023/03/28 04:54:22;;;;;;;1999.90;999.90;;;21.20;99.90;;;;;;5030573;28;20033;-69
2023/03/28 04:56:49;;;;;;;1999.90;999.90;;;21.10;99.90;;;;;;5034518;28;20025;-68
2023/03/28 04:59:17;;;;;;;1999.90;999.90;;;21.10;99.90;;;;;;5033310;28;20033;-70
2023/03/28 05:01:48;;;;;;;1999.90;999.90;;;21.10;99.90;;;;;;5028673;28;20089;-70
2023/03/28 05:04:16;;;;;;;1999.90;999.90;;;21.20;99.90;;;;;;5026269;28;20057;-69
2023/03/28 05:06:48;;;;;;;1999.90;999.90;;;21.30;99.90;;;;;;5036291;28;20395;-73
2023/03/28 05:09:16;;;;;;;1999.90;999.90;;;21.30;99.90;;;;;;5020258;28;20495;-69
2023/03/28 05:11:45;;;;;;;1999.90;999.90;;;21.40;99.90;;;;;;5031366;28;20045;-69
2023/03/28 05:14:13;;;;;;;1999.90;999.90;;;21.40;99.90;;;;;;5031337;28;20029;-71
2023/03/28 05:16:40;;;;;;;1999.90;999.90;;;21.40;99.90;;;;;;5032544;28;20043;-71
2023/03/28 05:19:09;;;;;;;1999.90;999.90;;;21.40;99.90;;;;;;5023246;28;20033;-68
2023/03/28 05:21:37;;;;;;;1999.90;999.90;;;21.40;99.90;;;;;;5032280;28;20025;-68
2023/03/28 05:24:04;;;;;;;1999.90;999.90;;;21.40;99.90;;;;;;5039206;28;20096;-69
2023/03/28 05:26:36;;;;;;;1999.90;999.90;;;21.40;99.90;;;;;;5026863;28;21727;-69
2023/03/28 05:29:03;;;;;;;1999.90;999.90;;;21.40;99.90;;;;;;5030339;28;20084;-70
2023/03/28 05:31:31;;;;;;;1999.90;999.90;;;21.40;99.90;;;;;;5028200;28;20507;-70
2023/03/28 05:33:59;;;;;;;1999.90;999.90;;;21.40;99.90;;;;;;5025439;28;20047;-70
2023/03/28 05:36:26;;;;;;;1999.90;999.90;;;21.40;99.90;;;;;;5033721;28;20030;-70
2023/03/28 05:38:54;;;;;;;1999.90;999.90;;;21.40;99.90;;;;;;5025895;28;20125;-71
2023/03/28 05:41:21;;;;;;;1999.90;999.90;;;21.40;99.90;;;;;;5037196;28;20033;-71
2023/03/28 05:43:49;;;;;;;1999.90;999.90;;;21.30;99.90;;;;;;5029168;28;20036;-69
2023/03/28 05:46:16;;;;;;;1999.90;999.90;;;21.30;99.90;;;;;;5034298;28;20033;-70
2023/03/28 05:48:44;;;;;;;1999.90;999.90;;;21.20;99.90;;;;;;5026633;28;20030;-69
2023/03/28 05:51:22;;;;;;;1999.90;999.90;;;21.10;99.90;;;;;;5027251;28;20029;-70
2023/03/28 05:53:49;;;;;;;1999.90;999.90;;;21.10;99.90;;;;;;5032920;28;20033;-69
2023/03/28 05:56:16;;;;;;;1999.90;999.90;;;21.10;99.90;;;;;;5025251;28;20025;-73
2023/03/28 05:58:44;;;;;;;1999.90;999.90;;;21.00;99.90;;;;;;5022961;28;20503;-69
2023/03/28 06:01:11;;;;;;;1999.90;999.90;;;21.00;99.90;;;;;;5037598;28;20037;-70
2023/03/28 06:03:41;;;;;;;1999.90;999.90;;;21.00;99.90;;;;;;5031981;28;20102;-70
2023/03/28 06:06:09;;;;;;;1999.90;999.90;;;21.00;99.90;;;;;;5034074;28;20041;-70
2023/03/28 06:08:36;;;;;;;1999.90;999.90;;;21.00;99.90;;;;;;5032608;28;20025;-69
2023/03/28 06:11:04;;;;;;;1999.90;999.90;;;21.00;99.90;;;;;;5032820;28;20030;-73
2023/03/28 06:13:32;;;;;;;1999.90;999.90;;;21.00;99.90;;;;;;5032694;28;20032;-69
2023/03/28 06:15:59;;;;;;;1999.90;999.90;;;20.90;99.90;;;;;;5041136;28;20044;-72
2023/03/28 06:18:27;;;;;;;1999.90;999.90;;;20.90;99.90;;;;;;5022302;28;20077;-71
2023/03/28 06:20:54;;;;;;;1999.90;999.90;;;20.90;99.90;;;;;;5027029;28;20040;-71
2023/03/28 06:23:22;;;;;;;1999.90;999.90;;;20.80;99.90;;;;;;5027844;28;20017;-70
2023/03/28 06:25:50;;;;;;;1999.90;999.90;;;20.80;99.90;;;;;;5025828;28;20039;-71
2023/03/28 06:28:17;;;;;;;1999.90;999.90;;;20.80;99.90;;;;;;5029644;28;20017;-68
2023/03/28 06:30:48;;;;;;;1999.90;999.90;;;20.80;99.90;;;;;;5023193;28;20038;-69
2023/03/28 06:33:16;;;;;;;1999.90;999.90;;;20.80;99.90;;;;;;5027620;28;20476;-69
2023/03/28 06:35:43;;;;;;;1999.90;999.90;;;20.80;99.90;;;;;;5029590;28;20060;-69
2023/03/28 06:38:11;;;;;;;1999.90;999.90;;;20.70;99.90;;;;;;5036284;28;20064;-70
2023/03/28 06:40:38;;;;;;;1999.90;999.90;;;20.70;99.90;;;;;;5027060;28;20111;-71
2023/03/28 06:43:06;;;;;;;1999.90;999.90;;;20.70;99.90;;;;;;5027828;28;20032;-70
2023/03/28 06:45:33;;;;;;;1999.90;999.90;;;20.70;99.90;;;;;;5031894;28;20037;-69
2023/03/28 06:48:00;;;;;;;1999.90;999.90;;;20.70;99.90;;;;;;5038314;28;20657;-70
2023/03/28 06:50:28;;;;;;;1999.90;999.90;;;20.60;99.90;;;;;;5039344;28;20049;-69
2023/03/28 06:52:55;;;;;;;1999.90;999.90;;;20.60;99.90;;;;;;5033138;28;20040;-67
2023/03/28 06:55:23;;;;;;;1999.90;999.90;;;20.60;99.90;;;;;;5038465;28;20380;-70
2023/03/28 06:57:50;;;;;;;1999.90;999.90;;;20.60;99.90;;;;;;5033102;28;20027;-70
2023/03/28 07:00:18;;;;;;;1999.90;999.90;;;20.60;99.90;;;;;;5032950;28;20026;-69
2023/03/28 07:02:45;;;;;;;1999.90;999.90;;;20.60;99.90;;;;;;5032409;28;20116;-70
2023/03/28 07:05:13;;;;;;;1999.90;999.90;;;20.50;99.90;;;;;;5039982;28;20095;-69
2023/03/28 07:07:40;;;;;;;1999.90;999.90;;;20.50;99.90;;;;;;5036781;28;20037;-71
2023/03/28 07:10:08;;;;;;;1999.90;999.90;;;20.50;99.90;;;;;;5041527;28;20377;-69
2023/03/28 07:12:36;;;;;;;1999.90;999.90;;;20.50;99.90;;;;;;5033249;28;20505;-71
2023/03/28 07:15:04;;;;;;;1999.90;999.90;;;20.50;99.90;;;;;;5036237;28;20030;-69
2023/03/28 07:17:35;;;;;;;1999.90;999.90;;;20.50;99.90;;;;;;5035986;28;20104;-71
2023/03/28 07:20:04;;;;;;;1999.90;999.90;;;20.40;99.90;;;;;;5036863;28;20023;-71
2023/03/28 07:22:31;;;;;;;1999.90;999.90;;;20.40;99.90;;;;;;5032372;28;20057;-70
2023/03/28 07:24:59;;;;;;;1999.90;999.90;;;20.40;99.90;;;;;;5039022;28;20031;-69
2023/03/28 07:27:26;;;;;;;1999.90;999.90;;;20.40;99.90;;;;;;5031993;28;20053;-68
2023/03/28 07:29:54;;;;;;;1999.90;999.90;;;20.40;99.90;;;;;;5034565;28;20041;-70
2023/03/28 07:32:21;;;;;;;1999.90;999.90;;;20.40;99.90;;;;;;5028349;28;20034;-70
2023/03/28 07:34:49;;;;;;;1999.90;999.90;;;20.30;99.90;;;;;;5040641;28;20036;-71
2023/03/28 07:37:16;;;;;;;1999.90;999.90;;;20.30;99.90;;;;;;5028627;28;20499;-70
2023/03/28 07:39:44;;;;;;;1999.90;999.90;;;20.40;99.90;;;;;;5035253;28;20033;-69
2023/03/28 07:42:12;;;;;;;1999.90;999.90;;;20.30;99.90;;;;;;5030354;28;20033;-71
2023/03/28 07:44:40;;;;;;;1999.90;999.90;;;20.30;99.90;;;;;;5023575;28;20069;-70
2023/03/28 07:47:08;;;;;;;1999.90;999.90;;;20.30;99.90;;;;;;5024460;28;20095;-72
2023/03/28 07:49:35;;;;;;;1999.90;999.90;;;20.30;99.90;;;;;;5023702;28;20037;-69
2023/03/28 07:52:04;;;;;;;1999.90;999.90;;;20.30;99.90;;;;;;5028801;28;20053;-70
2023/03/28 07:54:34;;;;;;;1999.90;999.90;;;20.30;99.90;;;;;;5031335;28;20040;-70
2023/03/28 07:57:01;;;;;;;1999.90;999.90;;;20.30;99.90;;;;;;5033998;28;20030;-69
2023/03/28 07:59:29;;;;;;;1999.90;999.90;;;20.30;99.90;;;;;;5030696;28;20020;-69
2023/03/28 08:01:58;;;;;;;1999.90;999.90;;;20.20;99.90;;;;;;5028312;28;20034;-70
2023/03/28 08:04:26;;;;;;;1999.90;999.90;;;20.20;99.90;;;;;;5030497;28;20029;-71
2023/03/28 08:06:54;;;;;;;1999.90;999.90;;;20.30;99.90;;;;;;5030479;28;20476;-70
2023/03/28 08:09:22;;;;;;;1999.90;999.90;;;20.20;99.90;;;;;;5032018;28;20110;-69
2023/03/28 08:11:50;;;;;;;1999.90;999.90;;;20.20;99.90;;;;;;5024358;28;20021;-69
2023/03/28 08:14:18;;;;;;;1999.90;999.90;;;20.20;99.90;;;;;;5029108;28;20037;-69
2023/03/28 08:16:46;;;;;;;1999.90;999.90;;;20.20;99.90;;;;;;5032337;28;21005;-69
2023/03/28 08:19:14;;;;;;;1999.90;999.90;;;20.20;99.90;;;;;;5035715;28;20029;-71
2023/03/28 08:21:41;;;;;;;1999.90;999.90;;;20.10;99.90;;;;;;5033512;28;20570;-69
2023/03/28 08:24:10;;;;;;;1999.90;999.90;;;20.20;99.90;;;;;;5031156;28;20052;-67
2023/03/28 08:26:40;;;;;;;1999.90;999.90;;;20.10;99.90;;;;;;5035060;28;20386;-70
2023/03/28 08:29:08;;;;;;;1999.90;999.90;;;20.10;99.90;;;;;;5030165;28;20129;-70
2023/03/28 08:31:35;;;;;;;1999.90;999.90;;;20.10;99.90;;;;;;5033562;28;20427;-68
2023/03/28 08:34:03;;;;;;;1999.90;999.90;;;20.10;99.90;;;;;;5030360;28;20397;-69
2023/03/28 08:36:30;;;;;;;1999.90;999.90;;;20.10;99.90;;;;;;5040479;28;20116;-71
2023/03/28 08:39:03;;;;;;;1999.90;999.90;;;20.10;99.90;;;;;;5037902;28;20028;-70
2023/03/28 08:41:41;;;;;;;1999.90;999.90;;;20.10;99.90;;;;;;5031359;28;20123;-69
2023/03/28 08:44:16;;;;;;;1999.90;999.90;;;20.10;99.90;;;;;;5033569;28;20025;-70
2023/03/28 08:46:47;;;;;;;1999.90;999.90;;;20.10;99.90;;;;;;5037656;28;20065;-70
2023/03/28 08:49:18;;;;;;;1999.90;999.90;;;20.10;99.90;;;;;;5028326;28;20392;-69
2023/03/28 08:52:01;;;;;;;1999.90;999.90;;;20.00;99.90;;;;;;5033393;28;20040;-69
2023/03/28 08:54:44;;;;;;;1999.90;999.90;;;20.00;99.90;;;;;;5034349;28;20045;-69
2023/03/28 08:57:18;;;;;;;1999.90;999.90;;;20.00;99.90;;;;;;5030318;28;20402;-68
2023/03/28 08:59:51;;;;;;;1999.90;999.90;;;20.00;99.90;;;;;;5037341;28;20145;-67
2023/03/28 09:02:21;;;;;;;1999.90;999.90;;;20.00;99.90;;;;;;5036332;28;20044;-67
2023/03/28 09:04:50;;;;;;;1999.90;999.90;;;20.00;99.90;;;;;;5039781;28;20040;-71
2023/03/28 09:07:41;;;;;;;1999.90;999.90;;;19.90;99.90;;;;;;5033319;28;20037;-71
2023/03/28 09:10:36;;;;;;;1999.90;999.90;;;20.00;99.90;;;;;;5036431;28;20387;-71
2023/03/28 09:13:24;;;;;;;1999.90;999.90;;;20.00;99.90;;;;;;5038848;28;20048;-70
2023/03/28 09:16:15;;;;;;;1999.90;999.90;;;19.90;99.90;;;;;;5034812;28;20029;-70
2023/03/28 09:19:03;;;;;;;1999.90;999.90;;;19.90;99.90;;;;;;5031307;28;20136;-69
2023/03/28 09:21:37;;;;;;;1999.90;999.90;;;19.90;99.90;;;;;;5031280;28;20420;-70
2023/03/28 09:24:43;;;;;;;1999.90;999.90;;;19.90;99.90;;;;;;5027882;28;20045;-68
2023/03/28 09:27:31;;;;;;;1999.90;999.90;;;19.90;99.90;;;;;;4990648;28;20041;-69
2023/03/28 09:30:16;;;;;;;1999.90;999.90;;;19.90;99.90;;;;;;4985092;28;20072;-69
2023/03/28 09:32:44;;;;;;;1999.90;999.90;;;19.90;99.90;;;;;;5017870;28;20049;-70
2023/03/28 09:35:23;;;;;;;1999.90;999.90;;;20.00;99.90;;;;;;5027750;28;20030;-70
2023/03/28 09:38:03;;;;;;;1999.90;999.90;;;20.00;99.90;;;;;;5028759;28;20025;-71
2023/03/28 09:40:33;;;;;;;1999.90;999.90;;;20.00;99.90;;;;;;5026682;28;20514;-68
2023/03/28 09:43:24;;;;;;;1999.90;999.90;;;20.00;99.90;;;;;;5032814;28;20033;-71
2023/03/28 09:45:57;;;;;;;1999.90;999.90;;;20.00;99.90;;;;;;5033077;28;20041;-70
2023/03/28 09:48:30;;;;;;;1999.90;999.90;;;20.00;99.90;;;;;;5026125;28;20033;-71
2023/03/28 09:50:59;;;;;;;1999.90;999.90;;;20.00;99.90;;;;;;5028129;28;20476;-71
2023/03/28 09:53:37;;;;;;;1999.90;999.90;;;20.00;99.90;;;;;;5024315;28;20037;-69
2023/03/28 09:56:08;;;;;;;1999.90;999.90;;;20.00;99.90;;;;;;5038701;28;20059;-70
2023/03/28 09:58:55;;;;;;;1999.90;999.90;;;20.00;99.90;;;;;;5029175;28;20029;-68
2023/03/28 10:01:42;;;;;;;1999.90;999.90;;;19.90;99.90;;;;;;5044429;28;20033;-69
2023/03/28 10:04:15;;;;;;;1999.90;999.90;;;19.90;99.90;;;;;;5030991;28;20448;-70
2023/03/28 10:06:45;;;;;;;1999.90;999.90;;;19.90;99.90;;;;;;5029846;28;20439;-68
2023/03/28 10:09:24;;;;;;;1999.90;999.90;;;19.90;99.90;;;;;;5037050;28;20033;-69
2023/03/28 10:11:53;;;;;;;1999.90;999.90;;;19.90;99.90;;;;;;5042763;28;20028;-68
2023/03/28 10:14:46;;;;;;;1999.90;999.90;;;19.90;99.90;;;;;;5036137;28;20025;-71
2023/03/28 10:17:31;;;;;;;1999.90;999.90;;;19.90;99.90;;;;;;5030158;28;20103;-69
2023/03/28 10:20:21;;;;;;;1999.90;999.90;;;19.80;99.90;;;;;;5038447;28;20041;-70
2023/03/28 10:22:53;;;;;;;1999.90;999.90;;;19.80;99.90;;;;;;5025850;28;20032;-70
2023/03/28 10:25:41;;;;;;;1999.90;999.90;;;19.80;99.90;;;;;;5035623;28;20388;-72
2023/03/28 10:28:16;;;;;;;1999.90;999.90;;;19.80;99.90;;;;;;5034367;28;20082;-71
2023/03/28 10:30:51;;;;;;;1999.90;999.90;;;19.80;99.90;;;;;;5037555;28;20048;-71
2023/03/28 10:33:20;;;;;;;1999.90;999.90;;;19.80;99.90;;;;;;5031698;28;20511;-70
2023/03/28 10:35:58;;;;;;;1999.90;999.90;;;19.80;99.90;;;;;;5035232;28;20029;-70
2023/03/28 10:38:32;;;;;;;1999.90;999.90;;;19.70;99.90;;;;;;5035997;28;20087;-70
2023/03/28 10:40:59;;;;;;;1999.90;999.90;;;19.80;99.90;;;;;;5034651;28;20372;-71
2023/03/28 10:43:35;;;;;;;1999.90;999.90;;;19.80;99.90;;;;;;5030745;28;20478;-71
2023/03/28 10:46:17;;;;;;;1999.90;999.90;;;19.80;99.90;;;;;;5040802;28;20076;-70
2023/03/28 10:48:58;;;;;;;1999.90;999.90;;;19.80;99.90;;;;;;5035904;28;20026;-70
2023/03/28 10:51:27;;;;;;;1999.90;999.90;;;19.80;99.90;;;;;;5034570;28;20036;-70
2023/03/28 10:54:05;;;;;;;1999.90;999.90;;;19.80;99.90;;;;;;5037372;28;20041;-70
2023/03/28 10:56:43;;;;;;;1999.90;999.90;;;19.80;99.90;;;;;;5035675;28;20028;-70
2023/03/28 10:59:25;;;;;;;1999.90;999.90;;;19.80;99.90;;;;;;5035711;28;20041;-70
2023/03/28 11:01:58;;;;;;;1999.90;999.90;;;19.80;99.90;;;;;;5028120;28;20029;-70
2023/03/28 11:04:51;;;;;;;1999.90;999.90;;;19.80;99.90;;;;;;5028129;28;20121;-71
2023/03/28 11:07:30;;;;;;;1999.90;999.90;;;19.70;99.90;;;;;;5034209;28;20038;-70
2023/03/28 11:10:23;;;;;;;1999.90;999.90;;;19.70;99.90;;;;;;5031684;28;20029;-70
2023/03/28 11:12:59;;;;;;;1999.90;999.90;;;19.70;99.90;;;;;;5034220;28;20033;-70
2023/03/28 11:15:38;;;;;;;1999.90;999.90;;;19.70;99.90;;;;;;5034596;28;20025;-70
2023/03/28 11:18:20;;;;;;;1999.90;999.90;;;19.70;99.90;;;;;;5031610;28;20032;-70
2023/03/28 11:21:24;;;;;;;1999.90;999.90;;;19.70;99.90;;;;;;5032904;28;20072;-69
2023/03/28 11:24:18;;;;;;;1999.90;999.90;;;19.70;99.90;;;;;;5026018;28;20480;-70
2023/03/28 11:27:22;;;;;;;1999.90;999.90;;;19.70;99.90;;;;;;5030656;28;20045;-70
2023/03/28 11:30:00;;;;;;;1999.90;999.90;;;19.70;99.90;;;;;;5031439;28;20033;-69
2023/03/28 11:32:37;;;;;;;1999.90;999.90;;;19.70;99.90;;;;;;5026472;28;20037;-70
2023/03/28 11:35:16;;;;;;;1999.90;999.90;;;19.70;99.90;;;;;;5037602;28;20041;-71
2023/03/28 11:38:06;;;;;;;1999.90;999.90;;;19.70;99.90;;;;;;5031725;28;20032;-70
2023/03/28 11:40:40;;;;;;;1999.90;999.90;;;19.70;99.90;;;;;;5036026;28;20029;-69
2023/03/28 11:43:12;;;;;;;1999.90;999.90;;;19.70;99.90;;;;;;5034132;28;20529;-70
2023/03/28 11:45:47;;;;;;;1999.90;999.90;;;19.70;99.90;;;;;;5030612;28;20506;-70
2023/03/28 11:48:18;;;;;;;1999.90;999.90;;;19.60;99.90;;;;;;5032919;28;20029;-69
2023/03/28 11:51:03;;;;;;;1999.90;999.90;;;19.60;99.90;;;;;;5034708;28;20108;-68
2023/03/28 11:53:43;;;;;;;1999.90;999.90;;;19.60;99.90;;;;;;5031514;28;20037;-69
2023/03/28 11:56:27;;;;;;;1999.90;999.90;;;19.70;99.90;;;;;;5035171;28;20030;-70
2023/03/28 11:58:59;;;;;;;1999.90;999.90;;;19.70;99.90;;;;;;5039725;28;20447;-70
2023/03/28 12:01:34;;;;;;;1999.90;999.90;;;19.60;99.90;;;;;;5034472;28;20037;-69
2023/03/28 12:04:30;;;;;;;1999.90;999.90;;;19.60;99.90;;;;;;5036931;28;20040;-70
2023/03/28 12:07:21;;;;;;;1999.90;999.90;;;19.60;99.90;;;;;;5035189;28;20556;-70
2023/03/28 12:10:07;;;;;;;1999.90;999.90;;;19.60;99.90;;;;;;5033865;28;20578;-70
2023/03/28 12:12:43;;;;;;;1999.90;999.90;;;19.60;99.90;;;;;;5032270;28;20110;-69
2023/03/28 12:15:21;;;;;;;1999.90;999.90;;;19.60;99.90;;;;;;5031523;28;20052;-70
2023/03/28 12:17:59;;;;;;;1999.90;999.90;;;19.60;99.90;;;;;;5034753;28;20033;-69
2023/03/28 12:20:59;;;;;;;1999.90;999.90;;;19.60;99.90;;;;;;5039811;28;20027;-70
2023/03/28 12:23:39;;;;;;;1999.90;999.90;;;19.50;99.90;;;;;;5035619;28;20040;-69
2023/03/28 12:26:41;;;;;;;1999.90;999.90;;;19.60;99.90;;;;;;5036200;28;20037;-70
2023/03/28 12:29:33;;;;;;;1999.90;999.90;;;19.60;99.90;;;;;;5033687;28;20049;-70